Latest Weather Observations for Maryborough

IDQ60801

Issued at 12:52 am EST Monday 10 August 2020 (issued every 10 minutes, with the page automatically refreshed every 10 minutes)

About weather observations | Map of weather stations | Latest weather observations for QLD | Other Formats
Station Details ID: 040126 Name: MARYBOROUGH Lat: -25.51 Lon: 152.72 Height: 8.98 m
Data from the previous 72 hours. | See also: Recent months at Maryborough
Date/Time
EST
Temp
°C
App
Temp
°C
Dew
Point
°C
Rel
Hum
%
Delta-T
°C
Wind Press
QNH
hPa
Press
MSL
hPa
Rain since
9am
mm
Dir  Spd
km/h
Gust
km/h
Spd
kts
Gust
kts
10/12:30am 8.8 5.9 4.6 75 1.9 WSW 9 11 5 6 1014.4 1014.3 0.0
10/12:00am 8.1 5.5 5.9 86 1.0 WSW 9 9 5 5 1014.8 1014.7 0.0
 
Date/Time
EST
Temp
°C
App
Temp
°C
Dew
Point
°C
Rel
Hum
%
Delta-T
°C
Wind Press
QNH
hPa
Press
MSL
hPa
Rain since
9am
mm
Dir  Spd
km/h
Gust
km/h
Spd
kts
Gust
kts
09/11:30pm 8.5 6.2 5.6 82 1.3 WSW 7 9 4 5 1015.0 1014.9 0.0
09/11:00pm 8.7 6.5 5.4 80 1.5 WSW 6 7 3 4 1015.0 1014.9 0.0
09/10:30pm 9.1 6.8 5.5 78 1.6 WSW 7 9 4 5 1015.2 1015.1 0.0
09/10:00pm 10.1 7.9 6.1 76 1.8 WSW 7 9 4 5 1015.2 1015.1 0.0
09/09:30pm 10.4 8.2 6.0 74 2.0 WSW 7 9 4 5 1015.1 1015.0 0.0
09/09:00pm 12.5 10.1 5.4 62 3.3 WSW 7 9 4 5 1015.1 1015.0 0.0
09/08:30pm 12.7 10.4 5.8 63 3.2 WSW 7 9 4 5 1014.9 1014.8 0.0
09/08:00pm 11.9 9.8 5.8 66 2.8 WSW 6 7 3 4 1014.8 1014.7 0.0
09/07:30pm 14.2 11.5 3.7 49 4.8 WSW 7 9 4 5 1014.5 1014.4 0.0
09/07:00pm 15.3 12.0 2.5 42 5.7 WSW 9 13 5 7 1014.3 1014.2 0.0
09/06:30pm 15.9 12.6 2.3 40 6.1 WSW 9 13 5 7 1013.9 1013.8 0.0
09/06:00pm 16.5 13.3 2.9 40 6.2 WSW 9 13 5 7 1013.4 1013.3 0.0
09/05:30pm 17.5 13.8 2.3 36 6.9 WSW 11 15 6 8 1012.9 1012.8 0.0
09/05:00pm 19.1 14.7 2.5 33 7.7 SW 15 22 8 12 1012.6 1012.5 0.0
09/04:30pm 20.2 16.0 3.9 34 7.8 SW 15 22 8 12 1012.5 1012.4 0.0
09/04:00pm 20.4 15.9 4.0 34 7.9 SW 17 20 9 11 1012.1 1012.0 0.0
09/03:30pm 20.5 16.7 3.7 33 8.0 W 13 19 7 10 1012.1 1012.0 0.0
09/03:00pm 20.6 16.2 4.6 35 7.8 SW 17 24 9 13 1012.1 1012.0 0.0
09/02:30pm 20.6 16.2 5.0 36 7.6 WSW 17 33 9 18 1012.0 1011.9 0.0
09/02:00pm 20.7 17.1 5.1 36 7.7 W 13 22 7 12 1012.3 1012.2 0.0
09/01:30pm 20.5 15.6 5.3 37 7.5 WSW 20 28 11 15 1012.6 1012.5 0.0
09/01:00pm 19.8 14.7 3.9 35 7.6 WSW 20 30 11 16 1013.0 1012.9 0.0
09/12:30pm 19.4 12.9 4.7 38 7.1 W 28 39 15 21 1013.4 1013.3 0.0
09/12:00pm 19.7 13.9 4.6 37 7.3 W 24 32 13 17 1014.0 1013.9 0.0
09/11:30am 19.2 14.3 4.2 37 7.2 WSW 19 35 10 19 1014.3 1014.2 0.0
09/11:00am 18.3 14.4 7.1 48 5.6 SW 17 24 9 13 1014.8 1014.7 0.0
09/10:30am 17.6 13.8 7.4 51 5.1 SW 17 30 9 16 1015.4 1015.3 0.0
09/10:00am 16.7 13.2 7.1 53 4.8 SW 15 22 8 12 1015.9 1015.8 0.0
09/09:30am 16.4 12.0 7.6 56 4.4 SW 20 26 11 14 1016.1 1016.0 0.0
09/09:00am 15.9 10.9 7.9 59 4.0 SW 24 33 13 18 1016.1 1016.0 1.8
09/08:30am 14.7 9.6 7.7 63 3.5 SW 24 33 13 18 1015.9 1015.8 1.8
09/08:00am 13.8 9.1 7.8 67 3.0 SW 22 30 12 16 1015.8 1015.7 1.8
09/07:30am 12.6 10.1 8.1 74 2.2 SW 11 19 6 10 1015.6 1015.5 1.8
09/07:00am 11.0 8.6 8.8 86 1.1 SW 11 15 6 8 1015.1 1015.0 1.8
09/06:30am 8.1 5.9 7.7 97 0.2 SW 9 11 5 6 1014.8 1014.7 1.8
09/06:19am 7.4 5.4 7.0 97 0.2 SW 7 11 4 6 1014.8 1014.7 1.8
09/06:01am 7.3 5.4 6.9 97 0.2 SW 6 7 3 4 1014.4 1014.3 1.8
09/06:00am 7.3 5.4 6.9 97 0.2 SW 6 7 3 4 1014.4 1014.3 1.8
09/05:30am 7.7 5.9 7.1 96 0.3 SW 6 6 3 3 1014.0 1013.9 1.8
09/05:29am 7.7 5.9 7.1 96 0.3 SW 6 6 3 3 1014.0 1013.9 1.8
09/05:00am 7.8 7.1 7.1 95 0.3 CALM 0 0 0 0 1013.7 1013.6 1.8
09/04:41am 8.3 7.8 7.7 96 0.3 CALM 0 0 0 0 1013.6 1013.5 1.8
09/04:30am 8.7 8.3 8.1 96 0.3 CALM 0 0 0 0 1013.5 1013.4 1.8
09/04:00am 8.7 8.2 7.9 95 0.4 CALM 0 0 0 0 1013.3 1013.2 1.8
09/03:30am 9.2 8.8 8.4 95 0.4 CALM 0 0 0 0 1013.4 1013.3 1.8
09/03:00am 9.7 9.5 8.9 95 0.4 CALM 0 0 0 0 1013.3 1013.2 1.8
09/02:30am 9.9 9.6 8.8 93 0.5 CALM 0 6 0 3 1013.4 1013.3 1.8
09/02:00am 10.5 10.4 9.3 92 0.6 CALM 0 4 0 2 1013.5 1013.4 1.8
09/01:30am 11.3 10.2 9.9 91 0.7 SW 6 9 3 5 1013.6 1013.5 1.8
09/01:00am 11.8 11.8 9.9 88 1.0 CALM 0 0 0 0 1013.6 1013.5 1.6
09/12:30am 13.3 11.9 9.5 78 1.9 SW 7 9 4 5 1013.6 1013.5 1.6
09/12:00am 14.5 13.0 9.3 71 2.7 SW 7 9 4 5 1013.8 1013.7 1.6
 
Date/Time
EST
Temp
°C
App
Temp
°C
Dew
Point
°C
Rel
Hum
%
Delta-T
°C
Wind Press
QNH
hPa
Press
MSL
hPa
Rain since
9am
mm
Dir  Spd
km/h
Gust
km/h
Spd
kts
Gust
kts
08/11:30pm 14.8 13.6 10.2 74 2.4 SW 7 9 4 5 1013.9 1013.8 1.6
08/11:00pm 15.6 13.9 9.9 69 3.0 SW 9 13 5 7 1014.1 1014.0 1.6
08/10:30pm 16.2 14.2 10.3 68 3.1 SW 11 13 6 7 1014.1 1014.0 1.6
08/10:00pm 16.8 14.9 10.4 66 3.4 SW 11 15 6 8 1014.1 1014.0 1.6
08/09:30pm 18.0 15.1 10.9 63 3.8 SSW 17 20 9 11 1014.0 1013.9 1.6
08/09:00pm 18.9 16.2 12.9 68 3.4 SW 19 28 10 15 1013.9 1013.8 1.6
08/08:30pm 18.9 20.3 18.7 99 0.1 N 9 13 5 7 1013.6 1013.5 1.6
08/08:02pm 19.0 20.8 18.7 98 0.2 N 7 9 4 5 1013.3 1013.2 1.6
08/08:00pm 19.1 20.9 18.8 98 0.2 N 7 9 4 5 1013.3 1013.2 1.6
08/07:30pm 19.4 21.0 19.2 99 0.1 N 9 13 5 7 1013.3 1013.2 1.6
08/07:00pm 19.2 22.2 18.5 96 0.4 CALM 0 7 0 4 1013.3 1013.2 1.6
08/06:53pm 19.0 21.9 18.2 95 0.5 CALM 0 2 0 1 1013.1 1013.0 1.6
08/06:30pm 19.4 21.1 18.6 95 0.5 N 7 11 4 6 1012.8 1012.7 1.6
08/06:23pm 19.5 20.9 18.7 95 0.5 N 9 13 5 7 1012.8 1012.7 1.6
08/06:10pm 19.6 21.1 18.8 95 0.5 WNW 9 13 5 7 1012.7 1012.6 1.6
08/06:00pm 19.7 21.5 18.7 94 0.6 N 7 11 4 6 1012.7 1012.6 1.6
08/05:30pm 19.8 21.1 18.5 92 0.8 N 9 13 5 7 1012.3 1012.2 1.6
08/05:00pm 20.5 22.1 19.2 92 0.8 N 9 15 5 8 1012.0 1011.9 1.6
08/04:30pm 20.9 22.2 19.2 90 1.1 NNE 11 19 6 10 1011.4 1011.3 1.6
08/04:06pm 21.6 23.8 19.7 89 1.2 N 7 13 4 7 1011.5 1011.4 1.4
08/04:00pm 21.7 24.0 19.8 89 1.2 N 7 15 4 8 1011.6 1011.5 1.4
08/03:49pm 21.5 22.1 18.7 84 1.8 NNE 13 17 7 9 1011.4 1011.3 1.2
08/03:30pm 22.6 23.7 18.8 79 2.4 N 11 19 6 10 1011.4 1011.3 0.0
08/03:00pm 23.1 24.3 19.1 78 2.5 NNE 11 17 6 9 1011.4 1011.3 0.0
08/02:30pm 22.5 23.5 18.7 79 2.4 NNE 11 15 6 8 1011.9 1011.8 0.0
08/02:10pm 22.4 23.9 18.8 80 2.3 NNE 9 13 5 7 1011.9 1011.8 0.0
08/02:00pm 22.3 23.9 19.1 82 2.0 NNE 9 15 5 8 1012.0 1011.9 0.0
08/01:50pm 21.5 22.4 18.3 82 2.0 NNE 11 15 6 8 1012.4 1012.3 0.0
08/01:41pm 21.8 23.2 18.6 82 2.0 NNE 9 15 5 8 1012.3 1012.2 0.0
08/01:30pm 21.7 23.6 18.9 84 1.8 NE 7 13 4 7 1012.4 1012.3 0.0
08/01:28pm 21.9 24.0 19.3 85 1.7 NNE 7 11 4 6 1012.4 1012.3 0.0
08/01:20pm 22.0 24.2 19.5 86 1.6 NNE 7 11 4 6 1012.6 1012.5 0.0
08/01:00pm 20.8 24.0 18.9 89 1.2 CALM 0 0 0 0 1012.7 1012.6 0.0
08/12:46pm 20.5 23.2 18.6 89 1.2 SW 2 7 1 4 1013.1 1013.0 0.0
08/12:30pm 20.3 21.9 18.2 88 1.3 SW 7 11 4 6 1013.5 1013.4 0.0
08/12:06pm 20.3 21.1 18.1 87 1.4 WSW 11 17 6 9 1013.9 1013.8 0.0
08/12:00pm 20.3 21.8 19.0 92 0.8 SW 9 17 5 9 1013.9 1013.8 0.0
08/11:38am 20.0 21.3 18.5 91 0.9 WSW 9 13 5 7 1014.3 1014.2 0.0
08/11:30am 20.1 21.2 18.1 88 1.2 WNW 9 13 5 7 1014.3 1014.2 0.0
08/11:00am 19.9 21.1 17.3 85 1.6 WSW 7 11 4 6 1014.6 1014.5 0.0
08/10:30am 19.4 20.9 17.5 89 1.2 W 6 9 3 5 1014.8 1014.7 0.0
08/10:00am 18.9 19.9 17.7 93 0.7 WSW 9 15 5 8 1015.3 1015.2 0.0
08/09:30am 18.4 19.6 18.2 99 0.1 SW 9 13 5 7 1015.7 1015.6 0.0
08/09:06am 18.1 19.7 17.9 99 0.1 WSW 6 9 3 5 1015.9 1015.8 0.0
08/09:00am 17.8 19.3 17.6 99 0.1 WSW 6 11 3 6 1015.9 1015.8 18.6
08/08:37am 17.4 17.8 17.2 99 0.1 WSW 11 17 6 9 1016.0 1015.9 18.6
08/08:30am 17.4 17.4 17.2 99 0.1 SW 13 17 7 9 1015.9 1015.8 18.6
08/08:02am 17.2 17.9 17.0 99 0.1 SW 9 13 5 7 1015.6 1015.5 18.6
08/08:00am 17.1 17.7 16.9 99 0.1 SW 9 13 5 7 1015.6 1015.5 18.6
08/07:30am 16.7 17.6 16.5 99 0.1 SW 7 9 4 5 1015.2 1015.1 18.6
08/07:00am 16.6 17.4 16.4 99 0.1 SW 7 9 4 5 1015.1 1015.0 18.2
08/06:30am 16.5 16.9 16.3 99 0.1 SSW 9 13 5 7 1015.1 1015.0 18.2
08/06:00am 16.4 17.7 16.2 99 0.1 SSW 4 7 2 4 1014.5 1014.4 18.2
08/05:30am 16.4 16.8 16.2 99 0.1 SW 9 15 5 8 1014.3 1014.2 18.2
08/05:00am 16.3 16.2 16.1 99 0.1 SW 11 13 6 7 1014.1 1014.0 18.0
08/04:30am 15.9 16.1 15.7 99 0.1 SSW 9 9 5 5 1013.5 1013.4 18.0
08/04:00am 16.1 16.4 15.9 99 0.1 E 9 11 5 6 1013.5 1013.4 18.0
08/03:30am 16.2 16.9 16.0 99 0.1 E 7 9 4 5 1013.2 1013.1 18.0
08/03:00am 16.1 16.7 15.9 99 0.1 E 7 7 4 4 1013.5 1013.4 18.0
08/02:30am 15.9 16.6 15.7 99 0.1 E 6 7 3 4 1013.4 1013.3 18.0
08/02:00am 16.1 17.7 15.9 99 0.1 E 2 7 1 4 1013.9 1013.8 18.0
08/01:30am 16.0 17.9 15.8 99 0.1 CALM 0 0 0 0 1014.1 1014.0 18.0
08/01:00am 16.3 18.3 16.1 99 0.1 CALM 0 0 0 0 1014.5 1014.4 18.0
08/12:30am 16.5 18.6 16.3 99 0.1 CALM 0 0 0 0 1014.7 1014.6 18.0
08/12:27am 16.5 18.6 16.3 99 0.1 CALM 0 0 0 0 1014.7 1014.6 18.0
08/12:14am 16.5 18.6 16.3 99 0.1 CALM 0 0 0 0 1014.9 1014.8 18.0
08/12:00am 16.5 18.6 16.3 99 0.1 CALM 0 0 0 0 1015.0 1014.9 18.0
 
Date/Time
EST
Temp
°C
App
Temp
°C
Dew
Point
°C
Rel
Hum
%
Delta-T
°C
Wind Press
QNH
hPa
Press
MSL
hPa
Rain since
9am
mm
Dir  Spd
km/h
Gust
km/h
Spd
kts
Gust
kts
07/11:30pm 16.6 17.4 16.4 99 0.1 E 7 9 4 5 1015.0 1014.9 18.0
07/11:10pm 16.6 18.8 16.4 99 0.1 CALM 0 0 0 0 1015.3 1015.2 18.0
07/11:00pm 16.6 18.8 16.4 99 0.1 CALM 0 0 0 0 1015.5 1015.4 18.0
07/10:30pm 16.5 18.6 16.3 99 0.1 CALM 0 0 0 0 1016.2 1016.1 17.8
07/10:00pm 16.5 18.6 16.3 99 0.1 CALM 0 0 0 0 1015.9 1015.8 17.8
07/09:44pm 16.6 18.0 16.4 99 0.1 NE 4 7 2 4 1016.4 1016.3 17.8
07/09:38pm 16.6 18.0 16.4 99 0.1 NNE 4 7 2 4 1015.8 1015.7 17.8
07/09:30pm 16.7 18.1 16.5 99 0.1 NE 4 11 2 6 1016.4 1016.3 17.6
07/09:26pm 16.7 18.1 16.5 99 0.1 ENE 4 11 2 6 1016.2 1016.1 17.6
07/09:00pm 16.7 18.9 16.5 99 0.1 CALM 0 6 0 3 1016.1 1016.0 17.0
07/08:30pm 16.8 19.0 16.6 99 0.1 CALM 0 0 0 0 1016.5 1016.4 16.8
07/08:00pm 17.0 18.9 16.8 99 0.1 ESE 2 9 1 5 1016.8 1016.7 16.2
07/07:31pm 17.0 17.6 16.8 99 0.1 SE 9 13 5 7 1015.7 1015.6 16.2
07/07:30pm 17.0 17.6 16.8 99 0.1 SE 9 15 5 8 1015.6 1015.5 16.2
07/07:00pm 17.2 18.3 17.0 99 0.1 SW 7 11 4 6 1015.7 1015.6 16.0
07/06:39pm 17.3 18.6 17.1 99 0.1 WSW 6 9 3 5 1015.7 1015.6 15.6
07/06:30pm 17.2 19.2 17.0 99 0.1 WSW 2 6 1 3 1015.8 1015.7 15.6
07/06:00pm 17.2 17.8 16.9 98 0.2 SSW 9 13 5 7 1015.1 1015.0 15.6
07/05:30pm 17.2 17.8 16.9 98 0.2 SW 9 13 5 7 1014.9 1014.8 15.0
07/05:09pm 17.3 17.2 17.0 98 0.2 SW 13 20 7 11 1014.8 1014.7 13.8
07/05:00pm 17.3 16.8 17.0 98 0.2 SW 15 22 8 12 1014.3 1014.2 13.6
07/04:47pm 17.4 16.6 17.1 98 0.2 SW 17 24 9 13 1014.4 1014.3 12.6
07/04:31pm 17.6 16.2 17.1 97 0.3 SW 20 26 11 14 1013.7 1013.6 11.4
07/04:30pm 17.6 16.2 17.0 96 0.4 SW 20 26 11 14 1013.7 1013.6 11.4
07/04:10pm 17.8 16.0 17.0 95 0.5 SW 22 32 12 17 1013.6 1013.5 9.4
07/04:00pm 17.9 15.3 16.9 94 0.6 SW 26 35 14 19 1013.3 1013.2 7.2
07/03:57pm 18.1 15.6 17.0 93 0.7 SW 26 35 14 19 1013.5 1013.4 5.4
07/03:54pm 18.2 16.0 17.0 93 0.7 SW 24 32 13 17 1013.7 1013.6 3.2
07/03:53pm 18.2 16.4 17.0 93 0.7 SW 22 32 12 17 1013.7 1013.6 3.2
07/03:36pm 18.3 18.1 16.8 91 0.9 N 13 26 7 14 1011.6 1011.5 2.6
07/03:30pm 18.3 17.7 16.6 90 1.0 N 15 30 8 16 1011.7 1011.6 2.4
07/03:19pm 18.3 17.6 16.5 89 1.1 NNE 15 22 8 12 1010.9 1010.8 1.6
07/03:00pm 19.5 17.7 15.6 78 2.3 N 19 28 10 15 1012.1 1012.0 0.0
07/02:30pm 19.8 19.1 15.4 76 2.6 NNE 13 26 7 14 1012.1 1012.0 0.0
07/02:00pm 19.5 18.4 15.2 76 2.5 NNE 15 24 8 13 1013.0 1012.9 0.0
07/01:30pm 19.8 19.1 15.4 76 2.6 NNE 13 22 7 12 1013.1 1013.0 0.0
07/01:00pm 19.9 18.6 14.7 72 3.0 NNE 15 26 8 14 1013.5 1013.4 0.0
07/12:30pm 20.2 19.2 14.6 70 3.3 NNE 13 20 7 11 1014.2 1014.1 0.0
07/12:00pm 20.2 19.4 14.1 68 3.5 NNE 11 24 6 13 1015.1 1015.0 0.0
07/11:30am 20.5 18.9 13.9 66 3.8 NNE 15 24 8 13 1015.9 1015.8 0.0
07/11:00am 20.6 18.5 13.6 64 4.0 NNE 17 30 9 16 1016.5 1016.4 0.0
07/10:30am 20.2 19.1 14.3 69 3.4 NNE 13 19 7 10 1017.4 1017.3 0.0
07/10:00am 20.0 19.5 14.8 72 3.0 NNE 11 24 6 13 1017.3 1017.2 0.0
07/09:30am 19.1 19.9 16.3 84 1.7 NNE 7 13 4 7 1017.7 1017.6 0.0
07/09:00am 17.3 18.2 16.0 92 0.8 NNE 6 9 3 5 1017.7 1017.6 0.6
07/08:30am 16.8 17.7 16.5 98 0.2 NE 7 15 4 8 1017.7 1017.6 0.6
07/08:22am 16.6 18.0 16.4 99 0.1 NNE 4 15 2 8 1017.8 1017.7 0.6
07/08:10am 16.3 15.9 16.1 99 0.1 N 13 22 7 12 1017.7 1017.6 0.6
07/08:00am 16.3 18.3 16.1 99 0.1 CALM 0 0 0 0 1017.4 1017.3 0.0
07/07:30am 16.0 16.8 15.8 99 0.1 NNE 6 9 3 5 1017.2 1017.1 0.0
07/07:00am 15.1 16.7 14.9 99 0.1 CALM 0 0 0 0 1017.5 1017.4 0.0
07/06:30am 14.8 15.0 14.6 99 0.1 NNE 7 9 4 5 1017.8 1017.7 0.0
07/06:00am 14.4 15.0 14.2 99 0.1 NNE 4 7 2 4 1017.0 1016.9 0.0
07/05:30am 14.4 15.7 14.2 99 0.1 CALM 0 4 0 2 1017.3 1017.2 0.0
07/05:00am 14.0 14.1 13.8 99 0.1 NNE 6 6 3 3 1017.1 1017.0 0.0
07/04:30am 13.8 13.2 13.6 99 0.1 NNE 9 13 5 7 1016.6 1016.5 0.0
07/04:00am 13.2 14.1 13.0 99 0.1 CALM 0 0 0 0 1016.6 1016.5 0.0
07/03:41am 13.1 14.0 12.9 99 0.1 CALM 0 0 0 0 1016.6 1016.5 0.0
07/03:30am 12.9 13.7 12.7 99 0.1 CALM 0 0 0 0 1016.5 1016.4 0.0
07/03:00am 12.8 13.6 12.6 99 0.1 CALM 0 0 0 0 1016.6 1016.5 0.0
07/02:30am 13.2 14.1 13.0 99 0.1 CALM 0 0 0 0 1016.7 1016.6 0.0
07/02:00am 12.6 13.3 12.3 98 0.2 CALM 0 0 0 0 1016.9 1016.8 0.0
07/01:41am 12.8 13.6 12.5 98 0.2 CALM 0 0 0 0 1017.0 1016.9 0.0
07/01:30am 12.7 13.4 12.2 97 0.3 CALM 0 0 0 0 1017.5 1017.4 0.0
07/01:00am 12.5 13.1 12.0 97 0.3 CALM 0 0 0 0 1017.6 1017.5 0.0

Other formats

Comma delimited format used in spreadsheet applications
http://www.bom.gov.au/fwo/IDQ60801/IDQ60801.94567.axf

JavaScript Object Notation format (JSON) in row-major order
http://www.bom.gov.au/fwo/IDQ60801/IDQ60801.94567.json

Data quality

Most of these data are generated automatically and are frequently updated. Quality checks on data are not normally performed. It is possible for incorrect values to appear. Refer to information at About Latest Weather Observations and please check the disclaimer before using these data.